Lindseyville, Kentucky
Current Conditions -  °F | °C
As of 10:53 AM on Monday 22 Dec 2014 (Local Time) from KBWG Reporting Station
Overcast Overcast  
Wind Chill: 54°   Ceiling: 2600
Heat Index: 54°   Visibility: 10mi
Dew Point: 44°   Wind: 8mph
Humidity: 69%   Direction: 150°SSE
Pressure: 29.88"   Gusts: NA
Location:  37.24°N, 86.29°W
Report Text: KBWG 221653Z AUTO 15007KT 10SM OVC026 12/07 A2988 RMK AO2 SLP120 T01220067
Loading
Personal Weather Stations






























Interactive Weather Map New forecast layout! Learn more

10-Day Weather Forecast

Advertisements
Track Severe Weather on mobile